Terminal Aerodrome Forecast
Issued by NWS Denver/Boulder, CO

Home | Current Version | Previous Version | Text Only | Print | Product List | Glossary On
Versions: 1 2 3 4 5 6 7 8 9 10 11 12 13 14 15 16 17 18 19 20 21 22 23 24 25 26 27 28 29 30 31 32 33 34 35 36 37 38 39 40 41 42 43 44 45 46 47 48 49 50
000
FTUS45 KBOU 170116 AAA
TAFDEN
TAF AMD
KDEN 170116Z 1701/1806 07009KT P6SM FEW080 SCT140 BKN200
     FM170400 08008KT P6SM FEW050 BKN080 BKN140
     FM170500 09008KT P6SM SCT015 BKN040
     FM170600 11006KT 4SM BR BKN006 OVC015
      TEMPO 1706/1710 1SM -FZDZSN BR OVC003
     FM171300 16007KT P6SM VCFG SCT012 OVC022
      TEMPO 1713/1715 BKN008
     FM171800 17007KT P6SM SCT025 BKN100
     FM180100 21008KT P6SM FEW120 SCT220=

USA.gov is the U.S. government's official web portal to all federal, state and local government web resources and services.